| Station | Date | Time | Temp (°F) | WindChill (°F) | RH (%) | Dew Pt (°F) | Wind Dir (°) | Wind Spd (mph) | Wind Gust (mph) | Solar Rad (W/m2) | Pressure (mb) | Daily Min Temp (°F) | Daily Max Temp (°F) | Daily Max Wind (mph) | Daily Rain (In) | Yest MinT (°F) | Yest MaxT (°F) | Yest MaxGst (mph) | Yest Precip (In) | MinBV Day (V) |
|---|---|---|---|---|---|---|---|---|---|---|---|---|---|---|---|---|---|---|---|---|
| MWA Office | 5/3/26 | 2345 | 51.3 19.2 | - | 70 38 | 41.8 2.8 | SW | 219 | 12.2 5.3 | 23.0 7.7 | 0 0 | 1,013.6 4.4 | 51.2 3.3 | 79.2 8.2 | 28.1 5.3 | 0.00 | 47.8 | 87.4 | 22.8 | 0.00 | 12.4 0.0 |
| MWA OPS | 5/3/26 | 2345 | 51.2 15.0 | - | 72 37 | 42.4 5.0 | SSW | 210 | 12.3 11.4 | 20.6 17.5 | 0 0 | 1,013.1 2.8 | 50.2 2.4 | 75.6 8.8 | 32.7 8.1 | 0.00 | 47.8 | 84.4 | 24.6 | 0.00 | 12.8 0.0 |
| LV-PS | 5/3/26 | 2345 | 54.3 18.4 | - | 48 26 | 35.2 2.9 | NW | 304 | 3.7 0.1 | 10.1 0.0 | 0 0 | 1,009.9 1.7 | 53.8 5.3 | 84.7 0.1 | 32.4 8.5 | 0.00 | 48.4 | 84.8 | 23.9 | 0.00 | 12.8 0.0 |
| JV-PS | 5/3/26 | 2345 | 56.7 13.0 | - | 46 15 | 36.3 1.4 | WNW | 298 | 6.4 4.9 | 16.4 11.6 | 0 0 | 1,009.0 0.1 | 56.3 4.7 | 83.3 2.7 | 28.9 4.4 | 0.00 | 51.6 | 86.0 | 33.3 | 0.00 | 12.9 0.0 |
| BDVWA | 5/3/26 | 2345 | 53.9 17.0 | - | 45 24 | 33.0 4.0 | NE | 37 | 0.9 9.8 | 3.7 15.1 | 0 0 | 1,009.3 1.2 | 53.6 4.0 | 78.6 3.2 | 36.8 14.5 | 0.00 | 57.6 | 81.8 | 22.4 | 0.00 | 12.8 0.0 |
| Newberry Springs | 5/3/26 | 2330 | 64.1 8.0 | - | 37 12 | 37.4 2.4 | W | 264 | 12.1 7.5 | 20.0 12.5 | 0 0 | 1,008.6 0.5 | 61.4 6.2 | 88.2 3.2 | 34.6 10.5 | 0.00 | 55.1 | 91.4 | 24.1 | 0.00 | 12.9 0.0 |
| Pinon Hills | 5/3/26 | 2345 | 45.0 18.8 | 42.8 | 70 48 | 35.7 11.3 | SSW | 201 | 4.3 4.6 | 7.5 11.2 | 0 0 | 1,013.0 4.3 | 44.6 10.2 | 70.1 7.0 | 28.7 5.7 | 0.00 | 54.8 | 77.1 | 34.4 | 0.00 | 12.9 0.0 |
| Helendale | 5/3/26 | 2345 | 55.7 5.3 | - | 61 25 | 42.5 8.3 | S | 187 | 9.5 8.4 | 14.2 10.1 | 0 0 | 1,011.4 0.3 | 49.8 1.5 | 80.1 8.1 | 33.3 10.7 | 0.00 | 48.3 | 88.2 | 22.6 | 0.00 | 12.7 0.0 |
| Lenwood | 5/3/26 | 2345 | 56.3 8.2 | - | 60 21 | 42.6 3.5 | SW | 216 | 15.6 11.3 | 24.3 17.1 | 0 0 | 1,011.0 0.6 | 49.1 1.8 | 83.7 6.4 | 43.2 16.9 | 0.00 | 47.4 | 90.1 | 26.3 | 0.00 | 12.8 12.5 |
| Oak Hills | 5/3/26 | 2345 | 44.2 13.4 | 37.4 | 86 21 | 40.2 5.7 | SSW | 193 | 8.6 3.9 | 20.0 6.4 | 0 0 | 1,014.0 2.4 | 44.2 7.7 | 60.8 17.4 | 32.0 7.9 | 0.00 | 51.8 | 78.2 | 24.1 | 0.00 | 12.9 0.0 |
| Pipes Wash Canyon | 5/3/26 | 2345 | 48.1 9.0 | - | 28 3 | 16.9 10.2 | W | 263 | 1.7 0.6 | 3.9 0.2 | 0 0 | 1,009.9 1.8 | 47.2 7.7 | 74.9 4.3 | 23.2 9.0 | 0.00 | 54.8 | 79.2 | 32.2 | 0.00 | 12.8 0.0 |
| Max | 64.1 | 42.8 | 86 | 42.6 | - | 15.6 | 24.3 | 0 | 1,014.0 | 61.4 | 88.2 | 43.2 | 0.00 | 57.6 | 91.4 | 34.4 | 0.00 | 12.9 | ||
| Avg | 52.8 | 40.1 | 57 | 36.7 | - | 7.9 | 14.9 | 0 | 1,011.2 | - | - | - | - | - | - | - | - | - | ||
| Min | 44.2 | 37.4 | 28 | 16.9 | - | 0.9 | 3.7 | 0 | 1,008.6 | 44.2 | 60.8 | 23.2 | 0.00 | 47.4 | 77.1 | 22.4 | 0.00 | 12.4 |
| Station | Date | Time | Latest Rain (In) | Daily Rain (In) | Yest Precip (In) | Month Precip (In) | Season Precip (In) | Daily ETo (in) | Yest ETo (In) | 7 Day ETo (in) |
|---|---|---|---|---|---|---|---|---|---|---|
| MWA Office | 5/3/26 | 2345 | 0.00 | 0.00 | 0.00 | 0.00 | 4.30 | 0.240 | 0.27 | 1.53 |
| MWA OPS | 5/3/26 | 2345 | 0.00 | 0.00 | 0.00 | 0.00 | 9.32 | 0.233 | 0.28 | 1.56 |
| LV-PS | 5/3/26 | 2345 | 0.00 | 0.00 | 0.00 | 0.00 | 3.63 | 0.281 | 0.30 | 1.70 |
| JV-PS | 5/3/26 | 2345 | 0.00 | 0.00 | 0.00 | 0.00 | 6.38 | 0.298 | 0.30 | 1.74 |
| BDVWA | 5/3/26 | 2345 | 0.00 | 0.00 | 0.00 | 0.00 | 6.35 | 0.296 | 0.30 | 1.72 |
| Newberry Springs | 5/3/26 | 2330 | 0.00 | 0.00 | 0.00 | 0.00 | 2.70 | 0.282 | 0.30 | 1.90 |
| Pinon Hills | 5/3/26 | 2345 | 0.00 | 0.00 | 0.00 | 0.00 | 15.51 | 0.230 | 0.28 | 1.46 |
| Helendale | 5/3/26 | 2345 | 0.00 | 0.00 | 0.00 | 0.00 | 5.55 | 0.280 | 0.28 | 1.68 |
| Lenwood | 5/3/26 | 2345 | 0.00 | 0.00 | 0.00 | 0.00 | 4.24 | 0.307 | 0.31 | 1.72 |
| Oak Hills | 5/3/26 | 2345 | 0.00 | 0.00 | 0.00 | 0.00 | 14.72 | 0.143 | 0.25 | 1.42 |
| Pipes Wash Canyon | 5/3/26 | 2345 | 0.00 | 0.00 | 0.00 | 0.00 | 13.92 | 0.236 | 0.25 | 1.52 |
| Max | 0.00 | 0.00 | 0.00 | 0.00 | 15.51 | 0.307 | 0.31 | 1.90 | ||
| Avg | 0.00 | - | - | - | - | - | - | - | ||
| Min | 0.00 | 0.00 | 0.00 | 0.00 | 2.70 | 0.143 | 0.25 | 1.42 |